Time;durP1;ratioP1;P1;durP2;ratioP2;P2;SDS_P1;SDS_P2;PMS_P1;PMS_P2;Temp;Humidity;BMP_temperature;BMP_pressure;BME280_temperature;BME280_humidity;BME280_pressure;Samples;Min_cycle;Max_cycle;Signal;HPM_P1;HPM_P2
2023/12/22 00:01:40;;;;;;;30.48;4.30;;;6.70;99.90;;;;;;5013649;28;20117;-74
2023/12/22 00:04:06;;;;;;;31.48;5.18;;;6.70;99.90;;;;;;5013493;28;20041;-74
2023/12/22 00:06:33;;;;;;;22.85;4.10;;;6.60;99.90;;;;;;4995477;28;20038;-74
2023/12/22 00:08:58;;;;;;;19.85;3.63;;;6.70;99.90;;;;;;5013162;28;20428;-74
2023/12/22 00:11:24;;;;;;;23.40;3.40;;;6.70;99.90;;;;;;5011580;28;20080;-74
2023/12/22 00:13:52;;;;;;;24.05;4.05;;;6.70;99.90;;;;;;5012699;28;20078;-74
2023/12/22 00:16:18;;;;;;;22.05;3.45;;;6.70;99.90;;;;;;4978379;28;20409;-74
2023/12/22 00:18:44;;;;;;;17.55;3.13;;;6.80;99.90;;;;;;4995198;28;20528;-74
2023/12/22 00:21:10;;;;;;;17.48;3.53;;;6.80;99.90;;;;;;4995215;28;20042;-74
2023/12/22 00:23:37;;;;;;;14.43;2.92;;;6.80;99.90;;;;;;4977932;28;20041;-74
2023/12/22 00:26:03;;;;;;;19.50;3.55;;;6.80;99.90;;;;;;5006650;28;20436;-74
2023/12/22 00:28:31;;;;;;;25.70;3.58;;;6.80;99.90;;;;;;5013853;28;20399;-74
2023/12/22 00:30:58;;;;;;;20.63;3.78;;;6.70;99.90;;;;;;5000981;28;20033;-74
2023/12/22 00:33:25;;;;;;;16.52;3.58;;;6.70;99.90;;;;;;4995611;28;20030;-75
2023/12/22 00:35:52;;;;;;;22.08;3.42;;;6.60;99.90;;;;;;4994642;28;20037;-75
2023/12/22 00:38:17;;;;;;;24.95;3.15;;;6.60;99.90;;;;;;5012250;28;20081;-75
2023/12/22 00:40:43;;;;;;;24.08;4.07;;;6.60;99.90;;;;;;5012891;28;20038;-75
2023/12/22 00:43:08;;;;;;;27.23;3.50;;;6.60;99.90;;;;;;5010644;28;20091;-75
2023/12/22 00:45:35;;;;;;;22.70;3.58;;;6.60;99.90;;;;;;4994582;28;20125;-75
2023/12/22 00:48:00;;;;;;;25.70;3.83;;;6.60;99.90;;;;;;4994516;28;20484;-75
2023/12/22 00:50:26;;;;;;;19.33;3.38;;;6.60;99.90;;;;;;4994731;28;20046;-74
2023/12/22 00:52:52;;;;;;;20.73;3.72;;;6.60;99.90;;;;;;5012283;28;20048;-74
2023/12/22 00:55:17;;;;;;;20.75;4.28;;;6.70;99.90;;;;;;5010931;28;20515;-75
2023/12/22 00:57:43;;;;;;;18.65;3.22;;;6.70;99.90;;;;;;4994429;28;20046;-75
2023/12/22 01:00:12;;;;;;;22.33;3.50;;;6.70;99.90;;;;;;4994470;28;20550;-75
2023/12/22 01:02:38;;;;;;;19.90;3.47;;;6.70;99.90;;;;;;4987986;28;20046;-75
2023/12/22 01:05:04;;;;;;;23.65;3.60;;;6.60;99.90;;;;;;4994600;28;20041;-75
2023/12/22 01:07:30;;;;;;;20.20;3.30;;;6.60;99.90;;;;;;5007470;28;20088;-75
2023/12/22 01:09:56;;;;;;;22.83;3.70;;;6.60;99.90;;;;;;4992864;28;20041;-75
2023/12/22 01:12:21;;;;;;;26.73;3.83;;;6.60;99.90;;;;;;5011802;28;20042;-75
2023/12/22 01:14:50;;;;;;;19.77;3.70;;;6.60;99.90;;;;;;5008099;28;20038;-75
2023/12/22 01:17:16;;;;;;;24.77;3.40;;;6.60;99.90;;;;;;4993434;28;20053;-74
2023/12/22 01:19:41;;;;;;;20.42;3.28;;;6.50;99.90;;;;;;5011267;28;20038;-74
2023/12/22 01:22:07;;;;;;;21.50;4.40;;;6.60;99.90;;;;;;4993664;28;20120;-74
2023/12/22 01:24:32;;;;;;;23.15;3.20;;;6.60;99.90;;;;;;5011381;28;20038;-75
2023/12/22 01:26:58;;;;;;;24.30;3.97;;;6.60;99.90;;;;;;5007487;28;20120;-74
2023/12/22 01:29:24;;;;;;;17.10;2.88;;;6.60;99.90;;;;;;4994557;28;20042;-75
2023/12/22 01:31:49;;;;;;;22.27;3.65;;;6.60;99.90;;;;;;5010915;28;20481;-75
2023/12/22 01:34:15;;;;;;;18.48;3.33;;;6.60;99.90;;;;;;5010463;28;20211;-75
2023/12/22 01:36:41;;;;;;;18.27;3.33;;;6.60;99.90;;;;;;4993795;28;20042;-74
2023/12/22 01:39:07;;;;;;;14.35;3.03;;;6.60;99.90;;;;;;5010573;28;20100;-75
2023/12/22 01:41:33;;;;;;;15.13;2.80;;;6.70;99.90;;;;;;4980222;28;20042;-75
2023/12/22 01:43:59;;;;;;;16.33;2.83;;;6.70;99.90;;;;;;5007637;28;20057;-74
2023/12/22 01:46:25;;;;;;;19.13;3.30;;;6.70;99.90;;;;;;4972375;28;20425;-75
2023/12/22 01:48:54;;;;;;;14.52;2.85;;;6.70;99.90;;;;;;5010484;28;20045;-74
2023/12/22 01:51:21;;;;;;;16.17;2.67;;;7.80;99.90;;;;;;4977777;28;20050;-74
2023/12/22 01:53:47;;;;;;;16.95;2.75;;;6.80;99.90;;;;;;5011058;28;20061;-74
2023/12/22 01:56:15;;;;;;;17.90;2.75;;;6.80;99.90;;;;;;5011240;28;20030;-74
2023/12/22 01:58:42;;;;;;;17.15;2.65;;;6.80;99.90;;;;;;4977815;28;20042;-74
2023/12/22 02:01:11;;;;;;;15.55;2.90;;;6.80;99.90;;;;;;4993779;28;20121;-75
2023/12/22 02:03:42;;;;;;;17.73;2.78;;;6.80;99.90;;;;;;4979675;28;20508;-74
2023/12/22 02:06:07;;;;;;;15.20;2.63;;;6.80;99.90;;;;;;4993334;28;20042;-75
2023/12/22 02:08:34;;;;;;;19.02;3.50;;;6.80;99.90;;;;;;4987738;28;20049;-74
2023/12/22 02:11:00;;;;;;;18.33;2.75;;;6.80;99.90;;;;;;4992844;28;20113;-75
2023/12/22 02:13:28;;;;;;;18.27;2.85;;;6.80;99.90;;;;;;4993020;28;20496;-74
2023/12/22 02:16:12;;;;;;;14.15;2.17;;;6.90;99.90;;;;;;4977352;28;20121;-75
2023/12/22 02:18:39;;;;;;;13.80;2.05;;;6.80;99.90;;;;;;5011579;28;20046;-75
2023/12/22 02:21:05;;;;;;;20.55;3.75;;;6.80;99.90;;;;;;4979447;28;20038;-75
2023/12/22 02:23:31;;;;;;;13.68;3.25;;;6.80;99.90;;;;;;4993567;28;20081;-75
2023/12/22 02:26:17;;;;;;;19.98;4.47;;;6.70;99.90;;;;;;5004172;28;20069;-75
2023/12/22 02:28:45;;;;;;;18.73;2.78;;;6.70;99.90;;;;;;4993663;28;20037;-75
2023/12/22 02:31:36;;;;;;;21.55;3.33;;;6.70;99.90;;;;;;5011232;28;20083;-75
2023/12/22 02:34:07;;;;;;;17.15;2.90;;;6.70;99.90;;;;;;4993273;28;20610;-75
2023/12/22 02:36:36;;;;;;;11.68;2.22;;;6.70;99.90;;;;;;5006991;28;20042;-74
2023/12/22 02:39:05;;;;;;;14.50;2.75;;;6.70;99.90;;;;;;5011677;28;20377;-74
2023/12/22 02:41:31;;;;;;;9.27;2.03;;;6.60;99.90;;;;;;5010602;28;20496;-74
2023/12/22 02:44:01;;;;;;;10.63;2.13;;;6.40;99.90;;;;;;4975958;28;20061;-74
2023/12/22 02:46:28;;;;;;;10.00;1.60;;;6.40;99.90;;;;;;4996959;28;20037;-73
2023/12/22 02:48:54;;;;;;;14.40;2.13;;;6.30;99.90;;;;;;5014505;28;20130;-74
2023/12/22 02:51:20;;;;;;;12.55;1.65;;;6.30;99.90;;;;;;5015206;28;20555;-74
2023/12/22 02:53:45;;;;;;;7.68;2.05;;;6.20;99.90;;;;;;4997473;28;20504;-74
2023/12/22 02:56:11;;;;;;;12.52;1.95;;;6.20;99.90;;;;;;4998277;28;20108;-74
2023/12/22 02:58:36;;;;;;;13.60;2.17;;;6.10;99.90;;;;;;5013884;28;20411;-74
2023/12/22 03:01:02;;;;;;;10.10;2.05;;;6.10;99.90;;;;;;4996541;28;20037;-74
2023/12/22 03:03:31;;;;;;;13.77;2.00;;;6.10;99.90;;;;;;5015133;28;20050;-74
2023/12/22 03:05:56;;;;;;;11.70;1.75;;;6.10;99.90;;;;;;4980908;28;20045;-73
2023/12/22 03:08:22;;;;;;;12.27;2.03;;;6.10;99.90;;;;;;4998321;28;20046;-73
2023/12/22 03:10:47;;;;;;;5.43;1.70;;;6.10;99.90;;;;;;5017515;28;20125;-73
2023/12/22 03:13:13;;;;;;;10.65;1.52;;;6.10;99.90;;;;;;5017300;28;20117;-73
2023/12/22 03:15:38;;;;;;;4.03;1.00;;;6.00;99.90;;;;;;5013627;28;20073;-72
2023/12/22 03:18:04;;;;;;;4.03;1.30;;;5.90;99.90;;;;;;5012688;28;20038;-72
2023/12/22 03:20:30;;;;;;;3.38;0.90;;;5.90;99.90;;;;;;5014545;28;20034;-72
2023/12/22 03:22:55;;;;;;;5.32;0.90;;;5.90;99.90;;;;;;5014756;28;20490;-72
2023/12/22 03:25:49;;;;;;;6.03;1.00;;;5.80;99.90;;;;;;4996167;28;20060;-73
2023/12/22 03:28:14;;;;;;;4.80;0.80;;;5.80;99.90;;;;;;4996120;28;20041;-72
2023/12/22 03:30:40;;;;;;;4.78;0.80;;;5.70;99.90;;;;;;5014856;28;20126;-73
2023/12/22 03:33:06;;;;;;;5.53;0.95;;;5.60;99.90;;;;;;5000554;28;20121;-73
2023/12/22 03:35:31;;;;;;;4.30;0.88;;;5.60;99.90;;;;;;5015790;28;20045;-73
2023/12/22 03:37:57;;;;;;;5.07;0.90;;;5.60;99.90;;;;;;5014479;28;20042;-73
2023/12/22 03:40:43;;;;;;;3.05;0.77;;;5.50;99.90;;;;;;5013476;28;20045;-73
2023/12/22 03:43:15;;;;;;;8.43;1.13;;;5.50;99.90;;;;;;4997347;28;20042;-73
2023/12/22 03:45:43;;;;;;;8.85;1.25;;;5.40;99.90;;;;;;5013116;28;20050;-73
2023/12/22 03:48:10;;;;;;;9.13;1.50;;;5.40;99.90;;;;;;4980307;28;20034;-73
2023/12/22 03:50:35;;;;;;;5.63;1.33;;;5.40;99.90;;;;;;5012281;28;20072;-73
2023/12/22 03:53:01;;;;;;;14.80;1.60;;;5.40;99.90;;;;;;5012633;28;20049;-73
2023/12/22 03:55:26;;;;;;;6.28;1.58;;;5.40;99.90;;;;;;4995986;28;20038;-73
2023/12/22 03:57:52;;;;;;;9.77;2.53;;;5.40;99.90;;;;;;5010959;28;20040;-73
2023/12/22 04:00:18;;;;;;;14.85;2.20;;;5.40;99.90;;;;;;5012904;28;20501;-73
2023/12/22 04:02:43;;;;;;;17.27;2.42;;;5.40;99.90;;;;;;5013961;28;20496;-73
2023/12/22 04:05:11;;;;;;;12.43;2.00;;;5.30;99.90;;;;;;5012685;28;20111;-73
2023/12/22 04:07:37;;;;;;;15.45;2.08;;;5.30;99.90;;;;;;5004069;28;20507;-73
2023/12/22 04:10:03;;;;;;;14.07;2.10;;;5.40;99.90;;;;;;5013896;28;20038;-73
2023/12/22 04:12:29;;;;;;;17.75;3.15;;;5.40;99.90;;;;;;5012589;28;20052;-73
2023/12/22 04:14:55;;;;;;;19.05;3.20;;;5.40;99.90;;;;;;5000838;28;20548;-72
2023/12/22 04:17:20;;;;;;;17.98;3.20;;;5.50;99.90;;;;;;5012423;28;20096;-73
2023/12/22 04:19:46;;;;;;;19.90;3.42;;;5.50;99.90;;;;;;4995146;28;20447;-73
2023/12/22 04:22:11;;;;;;;18.25;3.20;;;5.60;99.90;;;;;;4994994;28;20084;-73
2023/12/22 04:24:40;;;;;;;15.90;2.67;;;5.60;99.90;;;;;;4994161;28;20037;-73
2023/12/22 04:27:09;;;;;;;16.00;2.55;;;5.60;99.90;;;;;;4995657;28;20064;-73
2023/12/22 04:29:35;;;;;;;18.10;3.13;;;5.70;99.90;;;;;;4962751;28;20081;-73
2023/12/22 04:32:01;;;;;;;18.17;3.13;;;5.70;99.90;;;;;;4998721;28;20437;-73
2023/12/22 04:34:27;;;;;;;18.98;2.90;;;5.80;99.90;;;;;;5012704;28;20408;-73
2023/12/22 04:36:52;;;;;;;16.50;2.75;;;5.80;99.90;;;;;;5018063;22;20047;-75
2023/12/22 04:39:18;;;;;;;18.13;3.58;;;5.80;99.90;;;;;;4992166;28;20078;-74
2023/12/22 04:41:43;;;;;;;15.70;2.92;;;5.80;99.90;;;;;;4986145;28;20035;-75
2023/12/22 04:44:09;;;;;;;17.38;2.92;;;5.80;99.90;;;;;;4981631;28;20080;-82
2023/12/22 04:46:34;;;;;;;15.07;2.60;;;5.80;99.90;;;;;;4974172;28;20061;-74
2023/12/22 04:49:01;;;;;;;16.35;2.80;;;5.90;99.90;;;;;;4962724;28;20053;-74
2023/12/22 04:51:27;;;;;;;23.08;3.53;;;5.90;99.90;;;;;;4986148;28;20046;-79
2023/12/22 04:53:52;;;;;;;17.45;3.30;;;5.90;99.90;;;;;;4973324;28;20105;-75
2023/12/22 04:56:18;;;;;;;18.92;3.20;;;6.00;99.90;;;;;;4972940;28;20034;-75
2023/12/22 04:58:43;;;;;;;23.63;3.72;;;6.00;99.90;;;;;;4972707;28;20043;-76
2023/12/22 05:01:09;;;;;;;21.70;3.78;;;6.00;99.90;;;;;;4958709;28;20071;-80
2023/12/22 05:03:35;;;;;;;15.55;3.00;;;6.00;99.90;;;;;;4955586;28;20044;-75
2023/12/22 05:06:00;;;;;;;27.35;3.72;;;6.10;99.90;;;;;;4959027;28;20046;-76
2023/12/22 05:08:26;;;;;;;19.08;2.90;;;6.10;99.90;;;;;;4956967;28;20039;-77
2023/12/22 05:10:51;;;;;;;16.15;3.40;;;6.10;99.90;;;;;;4969942;28;20181;-76
2023/12/22 05:13:17;;;;;;;16.98;2.97;;;6.20;99.90;;;;;;4963268;28;20078;-75
2023/12/22 05:15:42;;;;;;;17.23;3.03;;;6.20;99.90;;;;;;4964321;28;20039;-75
2023/12/22 05:18:08;;;;;;;20.17;2.90;;;6.20;99.90;;;;;;4965106;28;20039;-77
2023/12/22 05:20:34;;;;;;;16.40;3.13;;;6.30;99.90;;;;;;4960200;28;20074;-79
2023/12/22 05:23:00;;;;;;;14.75;3.03;;;6.30;99.90;;;;;;4967225;28;20026;-75
2023/12/22 05:25:26;;;;;;;20.35;2.90;;;6.30;99.90;;;;;;4979429;28;20037;-75
2023/12/22 05:27:51;;;;;;;16.45;3.03;;;6.30;99.90;;;;;;4962396;28;20093;-75
2023/12/22 05:30:17;;;;;;;18.00;3.00;;;6.30;99.90;;;;;;4976130;28;20047;-75
2023/12/22 05:32:44;;;;;;;26.30;3.47;;;6.40;99.90;;;;;;4968185;28;20085;-75
2023/12/22 05:35:10;;;;;;;18.20;3.08;;;6.40;99.90;;;;;;4960796;28;20521;-75
2023/12/22 05:37:36;;;;;;;17.30;2.88;;;6.40;99.90;;;;;;4966281;28;20129;-75
2023/12/22 05:40:02;;;;;;;23.48;3.42;;;6.40;99.90;;;;;;4955531;28;20126;-75
2023/12/22 05:42:27;;;;;;;30.10;4.90;;;6.40;99.90;;;;;;4971541;28;20030;-75
2023/12/22 05:44:53;;;;;;;17.20;3.15;;;6.40;99.90;;;;;;4974160;28;20038;-75
2023/12/22 05:47:18;;;;;;;25.08;3.60;;;6.40;99.90;;;;;;4959095;28;20039;-78
2023/12/22 05:49:44;;;;;;;22.80;3.60;;;6.40;99.90;;;;;;4965981;28;20050;-75
2023/12/22 05:52:11;;;;;;;27.20;4.35;;;6.50;99.90;;;;;;4971414;28;20081;-75
2023/12/22 05:54:38;;;;;;;21.27;3.00;;;6.50;99.90;;;;;;4968295;28;20522;-79
2023/12/22 05:57:06;;;;;;;19.35;3.90;;;6.50;99.90;;;;;;4956930;28;20069;-75
2023/12/22 05:59:34;;;;;;;22.83;3.95;;;6.50;99.90;;;;;;4963150;28;20054;-76
2023/12/22 06:02:00;;;;;;;19.35;3.25;;;6.50;99.90;;;;;;4960160;28;20061;-74
2023/12/22 06:04:26;;;;;;;18.08;3.08;;;6.50;99.90;;;;;;4959078;28;20494;-75
2023/12/22 06:06:52;;;;;;;20.83;3.40;;;6.60;99.90;;;;;;4957628;28;20502;-76
2023/12/22 06:09:21;;;;;;;15.38;3.05;;;6.60;99.90;;;;;;4966121;28;20046;-75
2023/12/22 06:11:47;;;;;;;24.75;3.58;;;6.60;99.90;;;;;;4967620;28;20071;-79
2023/12/22 06:14:13;;;;;;;17.20;3.83;;;6.60;99.90;;;;;;4959598;28;20552;-74
2023/12/22 06:16:39;;;;;;;20.25;3.35;;;6.60;99.90;;;;;;4960783;28;20493;-74
2023/12/22 06:19:05;;;;;;;19.75;3.22;;;6.60;99.90;;;;;;4959507;28;20182;-75
2023/12/22 06:21:30;;;;;;;22.00;3.72;;;6.60;99.90;;;;;;4968015;28;20126;-75
2023/12/22 06:23:56;;;;;;;17.05;3.60;;;6.60;99.90;;;;;;4971510;28;20594;-76
2023/12/22 06:26:22;;;;;;;18.20;3.22;;;6.60;99.90;;;;;;4969859;28;20540;-79
2023/12/22 06:28:47;;;;;;;19.35;3.70;;;6.70;99.90;;;;;;4966909;28;20047;-75
2023/12/22 06:31:21;;;;;;;21.35;3.25;;;6.60;99.90;;;;;;4970173;28;20512;-75
2023/12/22 06:33:47;;;;;;;13.73;2.55;;;6.70;99.90;;;;;;4968634;28;20073;-75
2023/12/22 06:36:23;;;;;;;18.90;3.35;;;6.70;99.90;;;;;;4968286;28;20038;-76
2023/12/22 06:38:50;;;;;;;21.67;3.70;;;6.70;99.90;;;;;;4962954;28;20413;-75
2023/12/22 06:41:30;;;;;;;22.73;3.58;;;6.70;99.90;;;;;;4968717;28;20053;-81
2023/12/22 06:44:02;;;;;;;22.45;3.15;;;6.70;99.90;;;;;;4964681;28;20066;-76
2023/12/22 06:46:31;;;;;;;19.63;3.50;;;6.70;99.90;;;;;;4967978;28;20042;-76
2023/12/22 06:48:57;;;;;;;21.25;3.38;;;6.70;99.90;;;;;;4962272;28;20039;-78
2023/12/22 06:51:28;;;;;;;17.58;3.40;;;6.70;99.90;;;;;;4963243;28;20039;-77
2023/12/22 06:53:57;;;;;;;16.83;2.65;;;6.70;99.90;;;;;;4972284;28;20041;-75
2023/12/22 06:56:24;;;;;;;18.40;3.58;;;6.70;99.90;;;;;;4965472;28;20496;-77
2023/12/22 06:58:52;;;;;;;16.42;3.80;;;6.70;99.90;;;;;;4962819;28;20070;-74
2023/12/22 07:01:31;;;;;;;27.85;4.65;;;6.70;99.90;;;;;;4969639;28;20043;-78
2023/12/22 07:03:57;;;;;;;20.77;3.53;;;6.70;99.90;;;;;;4970478;28;20041;-75
2023/12/22 07:06:23;;;;;;;23.20;4.05;;;6.70;99.90;;;;;;4947139;28;20577;-77
2023/12/22 07:09:11;;;;;;;19.23;3.95;;;6.70;99.90;;;;;;4962702;28;20043;-77
2023/12/22 07:11:40;;;;;;;24.08;4.35;;;6.70;99.90;;;;;;4961932;28;20046;-75
2023/12/22 07:14:05;;;;;;;20.80;3.75;;;6.70;99.90;;;;;;4956403;28;20047;-78
2023/12/22 07:16:32;;;;;;;23.17;3.70;;;6.70;99.90;;;;;;4971052;28;20121;-78
2023/12/22 07:18:58;;;;;;;24.55;4.18;;;6.70;99.90;;;;;;4968435;28;21910;-74
2023/12/22 07:21:24;;;;;;;28.13;4.25;;;6.70;99.90;;;;;;4964957;28;20736;-75
2023/12/22 07:23:49;;;;;;;19.95;2.95;;;6.70;99.90;;;;;;4970355;28;20050;-75
2023/12/22 07:26:15;;;;;;;21.73;3.33;;;6.70;99.90;;;;;;4963931;28;20041;-75
2023/12/22 07:28:40;;;;;;;20.05;3.35;;;6.70;99.90;;;;;;4970566;28;20039;-75
2023/12/22 07:31:06;;;;;;;17.30;2.78;;;6.70;99.90;;;;;;4969845;28;20070;-76
2023/12/22 07:33:31;;;;;;;17.75;3.40;;;6.70;99.90;;;;;;4968113;28;20042;-75
2023/12/22 07:35:57;;;;;;;16.55;2.97;;;6.70;99.90;;;;;;4964939;28;20125;-75
2023/12/22 07:38:23;;;;;;;15.02;3.80;;;6.70;99.90;;;;;;4962295;28;20039;-76
2023/12/22 07:40:49;;;;;;;15.65;2.67;;;6.70;99.90;;;;;;4986705;28;20046;-76
2023/12/22 07:43:15;;;;;;;18.23;3.22;;;6.70;99.90;;;;;;4964239;28;20486;-75
2023/12/22 07:45:41;;;;;;;18.38;2.92;;;6.70;99.90;;;;;;4947943;28;20114;-74
2023/12/22 07:48:07;;;;;;;14.55;3.15;;;6.70;99.90;;;;;;4968053;28;20494;-77
2023/12/22 07:50:32;;;;;;;17.88;3.92;;;6.70;99.90;;;;;;4967859;28;20085;-76
2023/12/22 07:52:58;;;;;;;21.13;3.60;;;6.60;99.90;;;;;;4964698;28;20047;-76
2023/12/22 07:55:24;;;;;;;19.05;2.63;;;6.60;99.90;;;;;;4970800;28;20489;-74
2023/12/22 07:57:50;;;;;;;19.75;3.22;;;6.60;99.90;;;;;;4962874;28;20625;-74
2023/12/22 08:00:19;;;;;;;18.52;2.83;;;6.60;99.90;;;;;;4966618;28;20122;-75
2023/12/22 08:02:45;;;;;;;17.23;2.80;;;6.60;99.90;;;;;;4965495;28;20101;-74
2023/12/22 08:05:11;;;;;;;15.38;2.88;;;6.60;99.90;;;;;;4972322;28;20043;-77
2023/12/22 08:07:36;;;;;;;19.23;3.00;;;6.60;99.90;;;;;;4962162;28;20058;-75
2023/12/22 08:10:03;;;;;;;17.60;2.58;;;6.60;99.90;;;;;;4969052;28;20100;-76
2023/12/22 08:12:29;;;;;;;19.85;2.90;;;6.60;99.90;;;;;;4970055;28;20074;-77
2023/12/22 08:14:55;;;;;;;22.90;3.22;;;6.60;99.90;;;;;;4966343;28;20127;-75
2023/12/22 08:17:20;;;;;;;20.05;3.60;;;6.60;99.90;;;;;;4966315;28;20134;-74
2023/12/22 08:19:47;;;;;;;11.75;2.53;;;6.60;99.90;;;;;;4958770;28;20079;-74
2023/12/22 08:22:13;;;;;;;19.67;2.53;;;6.60;99.90;;;;;;4963918;28;20051;-73
2023/12/22 08:24:39;;;;;;;12.15;3.13;;;6.60;99.90;;;;;;4982119;28;20490;-74
2023/12/22 08:27:06;;;;;;;10.52;1.95;;;6.70;99.90;;;;;;4958022;28;20379;-74
2023/12/22 08:29:32;;;;;;;14.45;2.40;;;6.70;99.90;;;;;;4961050;28;20131;-82
2023/12/22 08:31:57;;;;;;;13.38;2.08;;;6.70;99.90;;;;;;4966062;28;20114;-77
2023/12/22 08:34:23;;;;;;;13.10;2.50;;;6.70;99.90;;;;;;4972270;28;20056;-81
2023/12/22 08:36:48;;;;;;;13.70;2.33;;;6.70;99.90;;;;;;4963358;28;20133;-74
2023/12/22 08:39:14;;;;;;;10.05;2.20;;;6.70;99.90;;;;;;4953026;28;20051;-78
2023/12/22 08:41:39;;;;;;;12.23;1.92;;;6.70;99.90;;;;;;4958095;28;20120;-80
2023/12/22 08:44:06;;;;;;;13.98;2.20;;;6.70;99.90;;;;;;4952553;28;20049;-76
2023/12/22 08:46:32;;;;;;;12.70;2.28;;;6.70;99.90;;;;;;4960085;28;20039;-85
2023/12/22 08:48:59;;;;;;;8.13;2.50;;;6.70;99.90;;;;;;4951384;28;20532;-76
2023/12/22 08:51:28;;;;;;;14.68;2.38;;;6.70;99.90;;;;;;4964103;28;20112;-79
2023/12/22 08:53:54;;;;;;;17.65;3.22;;;6.70;99.90;;;;;;4961825;28;21671;-78
2023/12/22 08:56:21;;;;;;;15.68;2.13;;;6.70;99.90;;;;;;4959998;28;20050;-80
2023/12/22 08:58:47;;;;;;;13.10;2.40;;;6.70;99.90;;;;;;4959061;28;20494;-75
2023/12/22 09:01:16;;;;;;;11.80;2.13;;;6.70;99.90;;;;;;4962950;28;20031;-76
2023/12/22 09:03:45;;;;;;;11.40;2.17;;;6.70;99.90;;;;;;4967437;28;20042;-74
2023/12/22 09:06:18;;;;;;;11.32;2.00;;;7.20;99.90;;;;;;4962991;28;20063;-75
2023/12/22 09:08:44;;;;;;;;;;;6.70;99.90;;;;;;4966449;28;20414;-74
2023/12/22 09:11:16;;;;;;;11.60;2.00;;;6.70;99.90;;;;;;4963557;28;19980;-75
2023/12/22 09:13:42;;;;;;;10.15;2.00;;;6.70;99.90;;;;;;4955083;28;20043;-75
2023/12/22 09:16:08;;;;;;;14.50;1.90;;;6.70;99.90;;;;;;4960475;28;20061;-77
2023/12/22 09:18:35;;;;;;;13.48;2.38;;;6.70;99.90;;;;;;4956097;28;20075;-77
2023/12/22 09:21:01;;;;;;;11.55;2.10;;;6.70;99.90;;;;;;4961164;28;20094;-74
2023/12/22 09:23:26;;;;;;;11.27;1.77;;;6.70;99.90;;;;;;4960944;28;20038;-74
2023/12/22 09:25:52;;;;;;;12.30;2.40;;;6.70;99.90;;;;;;4978606;28;20057;-74
2023/12/22 09:28:18;;;;;;;11.73;2.67;;;6.70;99.90;;;;;;4963086;28;20035;-74
2023/12/22 09:30:43;;;;;;;13.35;2.05;;;6.70;99.90;;;;;;4959548;28;20083;-75
2023/12/22 09:33:10;;;;;;;13.88;2.08;;;6.60;99.90;;;;;;4960999;28;20038;-77
2023/12/22 09:35:36;;;;;;;9.35;2.00;;;6.60;99.90;;;;;;4919607;28;1058586;-77
2023/12/22 09:38:02;;;;;;;13.68;2.92;;;6.60;99.90;;;;;;4962214;28;20046;-75
2023/12/22 09:40:28;;;;;;;14.73;2.47;;;6.60;99.90;;;;;;4959022;28;20512;-75
2023/12/22 09:42:58;;;;;;;18.17;2.70;;;6.60;99.90;;;;;;4981308;28;20043;-74
2023/12/22 09:45:24;;;;;;;14.70;2.08;;;6.50;99.90;;;;;;4966372;28;20039;-78
2023/12/22 09:47:53;;;;;;;10.57;2.20;;;6.50;99.90;;;;;;4958283;28;20407;-78
2023/12/22 09:50:20;;;;;;;14.43;2.05;;;6.50;99.90;;;;;;4967240;28;20129;-74
2023/12/22 09:52:47;;;;;;;11.57;2.20;;;6.50;99.90;;;;;;4956995;28;20502;-75
2023/12/22 09:55:17;;;;;;;11.60;2.40;;;6.50;99.90;;;;;;4961375;28;20043;-75
2023/12/22 09:57:44;;;;;;;12.98;2.38;;;6.50;99.90;;;;;;4958061;28;20047;-75
2023/12/22 10:00:12;;;;;;;10.23;2.05;;;6.50;99.90;;;;;;4956939;28;20051;-77
2023/12/22 10:02:39;;;;;;;14.85;2.58;;;6.40;99.90;;;;;;4954615;28;20058;-75
2023/12/22 10:05:04;;;;;;;9.77;2.00;;;6.50;99.90;;;;;;4956091;28;20537;-76
2023/12/22 10:07:30;;;;;;;11.90;2.75;;;6.40;99.90;;;;;;4971342;28;20042;-79
2023/12/22 10:09:57;;;;;;;11.00;2.08;;;6.40;99.90;;;;;;4956380;28;20045;-79
2023/12/22 10:12:24;;;;;;;7.47;1.80;;;6.50;99.90;;;;;;4958404;28;20051;-75
2023/12/22 10:14:50;;;;;;;12.93;2.15;;;6.50;99.90;;;;;;4956145;28;20535;-75
2023/12/22 10:17:17;;;;;;;14.13;2.30;;;6.50;99.90;;;;;;4957196;28;20039;-77
2023/12/22 10:19:42;;;;;;;17.15;2.28;;;6.50;99.90;;;;;;4960307;28;20097;-81
2023/12/22 10:22:08;;;;;;;10.48;2.05;;;6.50;99.90;;;;;;4950070;28;20133;-76
2023/12/22 10:24:47;;;;;;;6.40;1.73;;;6.60;99.90;;;;;;4955156;28;20113;-75
2023/12/22 10:27:13;;;;;;;9.43;1.65;;;6.60;99.90;;;;;;4960008;28;20095;-74
2023/12/22 10:29:40;;;;;;;7.13;1.20;;;6.60;99.90;;;;;;4960487;28;20042;-77
2023/12/22 10:32:07;;;;;;;4.75;0.90;;;6.60;99.90;;;;;;4953737;28;20482;-75
2023/12/22 10:34:33;;;;;;;5.53;1.00;;;6.60;99.90;;;;;;4962594;28;20095;-75
2023/12/22 10:37:02;;;;;;;5.80;0.80;;;6.60;99.90;;;;;;4956581;28;20043;-74
2023/12/22 10:39:31;;;;;;;4.68;1.00;;;6.60;99.90;;;;;;4946905;28;20071;-74
2023/12/22 10:41:58;;;;;;;3.80;0.95;;;6.70;99.90;;;;;;4965616;28;20409;-78
2023/12/22 10:44:28;;;;;;;2.92;0.98;;;6.70;99.90;;;;;;4953726;28;20050;-75
2023/12/22 10:46:54;;;;;;;2.70;0.90;;;6.70;99.90;;;;;;4956155;28;20078;-76
2023/12/22 10:49:21;;;;;;;6.18;1.38;;;6.70;99.90;;;;;;4949697;28;20039;-74
2023/12/22 10:51:46;;;;;;;4.07;1.30;;;6.70;99.90;;;;;;4957251;28;20081;-75
2023/12/22 10:54:12;;;;;;;4.55;1.02;;;6.70;99.90;;;;;;4957924;28;20586;-74
2023/12/22 10:56:39;;;;;;;3.50;1.17;;;6.70;99.90;;;;;;4948926;28;20134;-77
2023/12/22 10:59:06;;;;;;;4.00;1.00;;;6.70;99.90;;;;;;4965638;28;20083;-74
2023/12/22 11:01:33;;;;;;;2.38;0.70;;;6.70;99.90;;;;;;4953924;28;20126;-78
2023/12/22 11:04:02;;;;;;;3.85;1.02;;;6.70;99.90;;;;;;4964079;28;20035;-75
2023/12/22 11:06:35;;;;;;;2.88;0.80;;;6.70;99.90;;;;;;4953653;28;20093;-75
2023/12/22 11:09:03;;;;;;;;;;;6.70;99.90;;;;;;4956763;28;20071;-75
2023/12/22 11:11:34;;;;;;;3.33;0.70;;;6.70;99.90;;;;;;4976004;28;19925;-74
2023/12/22 11:14:00;;;;;;;1.88;0.50;;;6.70;99.90;;;;;;4972037;28;20439;-76
2023/12/22 11:16:28;;;;;;;2.63;0.60;;;6.70;99.90;;;;;;4962463;28;20509;-78
2023/12/22 11:18:55;;;;;;;3.58;0.93;;;6.70;99.90;;;;;;4961103;28;20051;-78
2023/12/22 11:21:25;;;;;;;3.25;0.80;;;6.70;99.90;;;;;;4964348;28;20081;-76
2023/12/22 11:23:51;;;;;;;2.17;0.70;;;6.70;99.90;;;;;;4955759;28;20113;-77
2023/12/22 11:26:22;;;;;;;3.63;0.70;;;6.80;99.90;;;;;;4966696;28;20050;-78
2023/12/22 11:28:50;;;;;;;4.18;0.90;;;6.80;99.90;;;;;;4968250;28;20166;-76
2023/12/22 11:31:17;;;;;;;5.07;0.70;;;6.80;99.90;;;;;;4961988;28;20070;-76
2023/12/22 11:33:47;;;;;;;1.90;0.80;;;6.80;99.90;;;;;;4975315;28;20081;-78
2023/12/22 11:36:14;;;;;;;3.08;0.80;;;6.80;99.90;;;;;;4963040;28;20047;-75
2023/12/22 11:38:41;;;;;;;3.15;0.70;;;6.80;99.90;;;;;;4956100;28;20051;-74
2023/12/22 11:41:10;;;;;;;4.82;0.85;;;6.80;99.90;;;;;;4968547;28;20047;-78
2023/12/22 11:43:37;;;;;;;4.90;0.90;;;6.80;99.90;;;;;;4963079;28;20090;-74
2023/12/22 11:46:03;;;;;;;3.67;0.80;;;6.90;99.90;;;;;;4956588;28;20043;-76
2023/12/22 11:48:30;;;;;;;4.22;0.75;;;6.90;99.90;;;;;;4971717;28;20108;-78
2023/12/22 11:50:55;;;;;;;3.60;0.73;;;6.90;99.90;;;;;;4956755;28;20051;-75
2023/12/22 11:53:32;;;;;;;4.40;0.63;;;6.90;99.90;;;;;;4961933;28;20061;-77
2023/12/22 11:55:58;;;;;;;10.25;2.03;;;6.90;99.90;;;;;;4965759;28;20053;-74
2023/12/22 11:58:39;;;;;;;1.95;0.40;;;6.90;99.90;;;;;;4987350;28;20057;-75
2023/12/22 12:01:14;;;;;;;4.32;0.88;;;6.90;99.90;;;;;;4966842;28;20515;-74
2023/12/22 12:03:55;;;;;;;2.22;0.57;;;6.90;99.90;;;;;;4957295;28;20042;-75
2023/12/22 12:06:27;;;;;;;3.17;0.60;;;6.90;99.90;;;;;;4960390;28;20043;-74
2023/12/22 12:08:57;;;;;;;3.53;0.70;;;7.00;99.90;;;;;;4961479;28;20054;-75
2023/12/22 12:11:24;;;;;;;5.13;0.60;;;7.00;99.90;;;;;;4960092;28;20122;-78
2023/12/22 12:13:50;;;;;;;2.38;0.60;;;7.00;99.90;;;;;;4956663;28;20050;-75
2023/12/22 12:16:22;;;;;;;6.35;0.82;;;7.00;99.90;;;;;;4966627;28;20050;-75
2023/12/22 12:18:48;;;;;;;3.90;0.68;;;7.00;99.90;;;;;;4961680;28;20409;-75
2023/12/22 12:21:16;;;;;;;1.48;0.68;;;7.00;99.90;;;;;;4978805;28;20039;-74
2023/12/22 12:23:42;;;;;;;3.78;0.70;;;7.10;99.90;;;;;;4969917;28;20037;-74
2023/12/22 12:26:08;;;;;;;3.08;0.85;;;7.00;99.90;;;;;;4951740;28;20118;-80
2023/12/22 12:28:36;;;;;;;1.92;0.68;;;7.10;99.90;;;;;;4959557;28;20035;-81
2023/12/22 12:31:06;;;;;;;5.10;0.90;;;7.10;99.90;;;;;;4955063;28;20067;-74
2023/12/22 12:33:32;;;;;;;5.25;0.77;;;7.10;99.90;;;;;;4960338;28;20701;-80
2023/12/22 12:36:00;;;;;;;4.55;1.00;;;7.10;99.90;;;;;;4957355;28;20099;-74
2023/12/22 12:38:48;;;;;;;4.95;0.88;;;7.10;99.90;;;;;;4955270;28;20040;-74
2023/12/22 12:41:15;;;;;;;4.38;0.80;;;7.10;99.90;;;;;;4952425;28;20043;-74
2023/12/22 12:43:43;;;;;;;5.05;0.95;;;7.10;99.90;;;;;;4957113;28;20118;-74
2023/12/22 12:46:09;;;;;;;4.40;1.27;;;7.10;99.90;;;;;;4955887;28;20047;-78
2023/12/22 12:48:35;;;;;;;4.80;0.80;;;7.10;99.90;;;;;;4951031;28;20046;-75
2023/12/22 12:51:07;;;;;;;3.97;0.80;;;7.10;99.90;;;;;;4967063;28;20461;-77